Flight Track Log - Related Links

Times and Time Zones

All times are in EDT time to prevent confusion due to time zone crossing. See the ASQ4633 flight status page for this flight to view local times or setup timezone preferences in your user account.

Time Position Orientation Groundspeed Altitude Reporting Facility
EDT Latitude Longitude Course Direction KTS MPH feet Rate Location/Type
Fri 05:44:52 PM 44.3958 -73.2711 194° South 263 303 9,900  Level Boston Center
Fri 05:45:00 PM 44.1787 -73.2553 190° South  Level FlightAware Approximate
Fri 05:45:52 PM 44.3186 -73.2931 191° South 279 321 11,500  Level Boston Center
Fri 05:46:00 PM 44.1051 -73.2737 190° South  Level FlightAware Approximate
Fri 05:46:52 PM 44.2267 -73.3208 192° South 325 374 12,700  Level Boston Center
Fri 05:47:00 PM 44.0323 -73.2971 196° South  Level FlightAware Approximate
Fri 05:47:52 PM 44.1264 -73.3511 192° South 359 413 14,800  Level Boston Center
Fri 05:48:00 PM 43.9604 -73.3259 196° South  Level FlightAware Approximate
Fri 05:48:52 PM 44.0283 -73.3786 191° South 366 421 16,900  Level Boston Center
Fri 05:49:00 PM 43.8883 -73.3539 194° South  Level FlightAware Approximate
Fri 05:49:52 PM 43.9469 -73.4031 192° South 378 435 17,800  Level Boston Center
Fri 05:50:00 PM 43.8156 -73.3782 194° South  Level FlightAware Approximate
Fri 05:50:52 PM 43.8236 -73.4386 192° South 378 435 19,700  Level Boston Center
Fri 05:51:52 PM 43.7381 -73.4631 192° South 385 443 21,100 1,150 Climbing Boston Center
Fri 05:52:52 PM 43.6167 -73.4953 191° South 398 458 22,000 450 Climbing Boston Center
Fri 05:53:52 PM 43.4956 -73.5306 192° South 419 482 22,000  Level Boston Center
Fri 05:54:52 PM 43.3764 -73.5628 191° South 434 499 22,000  Level Boston Center
Fri 05:55:52 PM 43.2572 -73.5975 192° South 434 499 22,000  Level Boston Center
Fri 05:56:52 PM 43.1297 -73.6406 194° South 434 499 22,000 -950 Level Boston Center
Fri 05:57:52 PM 43.0208 -73.6897 198° South 429 494 20,100 -1,900 Descending Boston Center
Fri 05:58:52 PM 42.9100 -73.7356 197° South 423 487 18,200 -1,700 Descending Boston Center
Fri 05:59:52 PM 42.8072 -73.7814 198° South 416 479 16,700 -1,050 Descending Boston Center
Fri 06:00:52 PM 42.7044 -73.8272 198° South 400 460 16,100 -300 Descending Boston Center
Fri 06:01:52 PM 42.6019 -73.8731 198° South 395 455 16,100  Level Boston Center
Fri 06:02:52 PM 42.5075 -73.9103 196° South 389 448 16,100  Level Boston Center
Fri 06:03:52 PM 42.3944 -73.9611 198° South 384 442 16,100  Level Boston Center
Fri 06:04:52 PM 42.3022 -74.0036 199° South 384 442 16,100  Level Boston Center
Fri 06:05:52 PM 42.1889 -74.0514 197° South 384 442 16,100  Level Boston Center
Fri 06:06:52 PM 42.0839 -74.0961 198° South 384 442 16,100 -50 Level Boston Center
Fri 06:07:52 PM 41.9811 -74.1436 199° South 389 448 16,000 -950 Descending Boston Center
Fri 06:08:52 PM 41.8889 -74.1831 198° South 389 448 14,200 -2,150 Descending Boston Center
Fri 06:09:52 PM 41.7839 -74.2303 199° South 377 434 11,700 -1,850 Descending Boston Center
Fri 06:10:52 PM 41.7083 -74.2617 197° South 337 388 10,500 -1,600 Descending Boston Center
Fri 06:11:52 PM 41.6306 -74.2983 199° South 289 333 8,500 -1,500 Descending Boston Center
Fri 06:12:52 PM 41.5697 -74.3242 198° South 271 312 7,500 -750 Descending Boston Center
Fri 06:13:52 PM 41.4900 -74.3578 198° South 266 306 7,000 -250 Descending Boston Center
Fri 06:14:52 PM 41.4186 -74.3917 200° South 266 306 7,000  Level Boston Center
Fri 06:15:52 PM 41.3536 -74.4172 196° South 260 299 7,000  Level Boston Center
Fri 06:16:52 PM 41.2947 -74.4431 198° South 236 272 7,000  Level Boston Center
Fri 06:17:52 PM 41.2431 -74.4194 161° South 196 226 7,000  Level Boston Center
Fri 06:18:52 PM 41.2939 -74.3714 35° Northeast 133 153 7,000  Level Boston Center
Fri 06:19:52 PM 41.3464 -74.3453 20° North 158 182 7,000  Level Boston Center
Fri 06:20:52 PM 41.4053 -74.3219 17° North 209 241 7,000  Level Boston Center
Fri 06:21:52 PM 41.4594 -74.3181 North 202 232 7,000  Level Boston Center
Fri 06:22:52 PM 41.4458 -74.3786 253° West 146 168 7,000  Level Boston Center
Fri 06:23:52 PM 41.3786 -74.4069 198° South 173 199 7,000  Level Boston Center
Fri 06:24:51 PM 41.3167 -74.4333 198° South 239 275 7,000  Level New York TRACON
Fri 06:25:51 PM 41.2500 -74.4667 201° Southwest 259 298 7,000  Level New York TRACON
Fri 06:26:51 PM 41.1833 -74.5000 201° Southwest 270 311 7,000 -250 Level New York TRACON
Fri 06:27:51 PM 41.1000 -74.5000 180° South 269 310 6,500 -700 Descending New York TRACON
Fri 06:28:51 PM 41.0333 -74.5167 191° South 257 296 5,600 -750 Descending New York TRACON
Fri 06:29:51 PM 40.9667 -74.4833 159° South 231 266 5,000 -300 Descending New York TRACON
Fri 06:30:51 PM 40.9500 -74.4167 108° East 235 270 5,000 -200 Level New York TRACON
Fri 06:31:51 PM 40.9500 -74.3167 90° East 224 258 4,600 -500 Descending New York TRACON
Fri 06:32:51 PM 40.9667 -74.2333 75° East 228 262 4,000 -300 Descending New York TRACON
Fri 06:33:51 PM 40.9500 -74.1667 108° East 234 269 4,000 -50 Level New York TRACON
Fri 06:34:51 PM 40.9167 -74.1000 123° Southeast 198 228 3,900 -500 Descending New York TRACON
Fri 06:35:51 PM 40.8667 -74.0833 166° South 194 223 3,000 -522 Descending New York TRACON
Fri 06:36:46 PM 40.8333 -74.0833 180° South 184 212 2,900 -109 Descending New York TRACON

Login

Don't have an account? Register now (free) for customized features, flight alerts, and more!